createdAt,value
2022-10-02T00:01:41.106Z,85.04
2022-10-02T00:03:47.596Z,84.81
2022-10-02T00:05:58.873Z,84.94
2022-10-02T00:08:09.938Z,84.46
2022-10-02T00:10:19.776Z,84.81
2022-10-02T00:12:27.552Z,84.67
2022-10-02T00:14:37.276Z,84.63
2022-10-02T00:16:45.850Z,84.82
2022-10-02T00:18:53.808Z,84.78
2022-10-02T00:21:04.243Z,84.52
2022-10-02T00:23:17.545Z,84.18
2022-10-02T00:25:28.760Z,84.49
2022-10-02T00:27:46.538Z,84.41
2022-10-02T00:29:54.999Z,84.62
2022-10-02T00:32:11.525Z,84.66
2022-10-02T00:34:28.904Z,84.08
2022-10-02T00:36:43.975Z,84.14
2022-10-02T00:38:56.730Z,84.19
2022-10-02T00:41:29.810Z,84.22
2022-10-02T00:43:43.991Z,84.16
2022-10-02T00:46:02.493Z,83.83
2022-10-02T00:48:19.618Z,83.55
2022-10-02T00:50:37.793Z,83.73
2022-10-02T00:53:02.306Z,83.85
2022-10-02T00:55:29.839Z,83.90
2022-10-02T00:57:50.259Z,83.71
2022-10-02T01:00:05.136Z,83.79
2022-10-02T01:02:15.117Z,83.84
2022-10-02T01:04:27.364Z,84.18
2022-10-02T01:06:32.215Z,84.02
2022-10-02T01:08:37.794Z,84.20
2022-10-02T01:10:42.959Z,84.42
2022-10-02T01:12:48.050Z,84.50
2022-10-02T01:14:52.904Z,85.02
2022-10-02T01:16:57.768Z,84.99
2022-10-02T01:19:03.135Z,84.95
2022-10-02T01:21:14.017Z,84.75
2022-10-02T01:23:28.600Z,85.05
2022-10-02T01:25:33.809Z,84.78
2022-10-02T01:27:39.509Z,84.78
2022-10-02T01:29:46.512Z,84.76
2022-10-02T01:31:51.411Z,84.78
2022-10-02T01:33:56.405Z,84.79
2022-10-02T01:36:01.869Z,84.36
2022-10-02T01:38:09.800Z,84.33
2022-10-02T01:40:27.310Z,84.39
2022-10-02T01:42:32.502Z,84.04
2022-10-02T01:44:37.954Z,83.76
2022-10-02T01:46:53.204Z,83.52
2022-10-02T01:49:19.679Z,83.60
2022-10-02T01:51:54.825Z,83.14
2022-10-02T01:54:10.036Z,82.96
2022-10-02T01:56:23.111Z,82.87
2022-10-02T01:58:40.954Z,82.62
2022-10-02T02:01:00.805Z,82.33
2022-10-02T02:03:18.787Z,82.32
2022-10-02T02:05:32.741Z,82.07
2022-10-02T02:07:46.655Z,81.89
2022-10-02T02:09:59.270Z,81.47
2022-10-02T02:12:11.549Z,81.42
2022-10-02T02:14:22.271Z,80.92
2022-10-02T02:16:34.091Z,80.56
2022-10-02T02:18:46.566Z,80.58
2022-10-02T02:20:55.769Z,80.21
2022-10-02T02:23:09.367Z,80.29
2022-10-02T02:25:18.742Z,80.17
2022-10-02T02:27:26.633Z,80.08
2022-10-02T02:29:34.428Z,80.08
2022-10-02T02:31:44.269Z,80.06
2022-10-02T02:33:54.801Z,80.12
2022-10-02T02:36:05.730Z,79.77
2022-10-02T02:38:14.905Z,79.59
2022-10-02T02:40:24.171Z,79.90
2022-10-02T02:42:32.653Z,79.71
2022-10-02T02:44:43.200Z,79.60
2022-10-02T02:46:52.752Z,79.79
2022-10-02T02:49:02.191Z,79.77
2022-10-02T02:51:13.053Z,79.94
2022-10-02T02:53:20.760Z,79.96
2022-10-02T02:55:31.213Z,80.17
2022-10-02T02:57:43.738Z,80.28
2022-10-02T02:59:52.887Z,80.61
2022-10-02T03:01:57.756Z,80.78
2022-10-02T03:04:02.929Z,80.94
2022-10-02T03:06:25.761Z,81.22
2022-10-02T03:08:33.870Z,81.53
2022-10-02T03:10:50.944Z,82.07
2022-10-02T03:13:03.787Z,82.02
2022-10-02T03:15:23.139Z,82.16
2022-10-02T03:17:40.343Z,82.30
2022-10-02T03:19:53.114Z,82.40
2022-10-02T03:22:05.687Z,82.61
2022-10-02T03:24:21.144Z,82.98
2022-10-02T03:26:35.758Z,82.90
2022-10-02T03:28:55.385Z,83.03
2022-10-02T03:31:01.689Z,83.05
2022-10-02T03:33:09.526Z,83.14
2022-10-02T03:35:15.190Z,83.18
2022-10-02T03:37:20.714Z,83.32
2022-10-02T03:39:26.277Z,83.60
2022-10-02T03:41:31.276Z,83.65
2022-10-02T03:43:36.018Z,83.63
2022-10-02T03:45:50.959Z,83.88
2022-10-02T03:47:56.760Z,83.95
2022-10-02T03:50:01.630Z,83.88
2022-10-02T03:52:06.393Z,83.88
2022-10-02T03:54:16.071Z,84.03
2022-10-02T03:56:30.565Z,83.97
2022-10-02T03:58:38.171Z,84.21
2022-10-02T04:00:47.562Z,84.01
2022-10-02T04:02:58.042Z,84.16
2022-10-02T04:05:20.940Z,84.01
2022-10-02T04:07:30.968Z,83.91
2022-10-02T04:09:42.377Z,83.79
2022-10-02T04:11:55.408Z,83.76
2022-10-02T04:14:06.378Z,83.76
2022-10-02T04:16:17.070Z,83.73
2022-10-02T04:18:26.605Z,83.72
2022-10-02T04:20:36.563Z,83.69
2022-10-02T04:22:48.687Z,83.52
2022-10-02T04:24:59.260Z,83.52
2022-10-02T04:27:10.364Z,83.43
2022-10-02T04:29:21.169Z,83.31
2022-10-02T04:31:25.932Z,83.23
2022-10-02T04:33:33.260Z,83.21
2022-10-02T04:35:48.647Z,83.20
2022-10-02T04:38:18.674Z,83.08
2022-10-02T04:40:46.949Z,83.02
2022-10-02T04:43:09.588Z,83.02
2022-10-02T04:45:32.782Z,82.82
2022-10-02T04:47:57.857Z,82.80
2022-10-02T04:50:16.182Z,82.61
2022-10-02T04:52:51.982Z,82.59
2022-10-02T04:55:15.179Z,82.32
2022-10-02T04:57:39.818Z,82.28
2022-10-02T05:00:03.374Z,82.12
2022-10-02T05:02:21.307Z,81.96
2022-10-02T05:04:51.488Z,81.98
2022-10-02T05:07:15.834Z,81.78
2022-10-02T05:09:30.272Z,81.62
2022-10-02T05:12:13.802Z,81.43
2022-10-02T05:14:36.939Z,81.32
2022-10-02T05:16:58.053Z,81.05
2022-10-02T05:19:18.559Z,81.06
2022-10-02T05:21:44.797Z,81.02
2022-10-02T05:24:08.954Z,80.90
2022-10-02T05:26:45.727Z,80.89
2022-10-02T05:29:10.452Z,80.51
2022-10-02T05:31:24.259Z,80.07
2022-10-02T05:33:48.232Z,79.95
2022-10-02T05:36:08.444Z,79.96
2022-10-02T05:38:22.953Z,79.73
2022-10-02T05:40:33.963Z,79.44
2022-10-02T05:42:45.729Z,78.99
2022-10-02T05:44:56.298Z,78.69
2022-10-02T05:47:11.120Z,78.53
2022-10-02T05:49:21.903Z,78.23
2022-10-02T05:51:34.680Z,78.00
2022-10-02T05:53:48.168Z,77.46
2022-10-02T05:55:58.451Z,77.41
2022-10-02T05:58:11.430Z,76.83
2022-10-02T06:00:28.634Z,76.94
2022-10-02T06:02:41.933Z,76.56
2022-10-02T06:04:53.558Z,76.44
2022-10-02T06:07:02.649Z,75.97
2022-10-02T06:09:18.970Z,75.78
2022-10-02T06:11:37.224Z,75.61
2022-10-02T06:13:47.478Z,75.14
2022-10-02T06:15:56.856Z,75.22
2022-10-02T06:18:07.301Z,75.02
2022-10-02T06:20:22.030Z,74.87
2022-10-02T06:22:29.820Z,74.45
2022-10-02T06:24:39.781Z,74.08
2022-10-02T06:26:51.162Z,74.37
2022-10-02T06:29:02.849Z,74.20
2022-10-02T06:31:14.453Z,74.62
2022-10-02T06:33:23.044Z,74.01
2022-10-02T06:35:52.343Z,74.51
2022-10-02T06:38:10.673Z,74.36
2022-10-02T06:40:38.643Z,74.60
2022-10-02T06:42:54.142Z,74.10
2022-10-02T06:45:09.608Z,73.97
2022-10-02T06:47:25.786Z,74.12
2022-10-02T06:49:45.581Z,74.03
2022-10-02T06:52:02.472Z,73.74
2022-10-02T06:54:20.764Z,73.26
2022-10-02T06:56:38.259Z,73.42
2022-10-02T06:59:08.049Z,72.77
2022-10-02T07:01:23.865Z,73.31
2022-10-02T07:04:02.260Z,73.31
2022-10-02T07:06:16.099Z,72.76
2022-10-02T07:08:30.117Z,73.19
2022-10-02T07:10:44.840Z,73.29
2022-10-02T07:13:11.732Z,73.69
2022-10-02T07:15:45.022Z,73.82
2022-10-02T07:18:05.555Z,74.13
2022-10-02T07:20:25.526Z,73.97
2022-10-02T07:22:45.909Z,73.78
2022-10-02T07:25:09.378Z,74.09
2022-10-02T07:27:22.388Z,74.12
2022-10-02T07:29:44.521Z,74.25
2022-10-02T07:32:01.629Z,74.30
2022-10-02T07:34:17.770Z,73.99
2022-10-02T07:36:30.374Z,74.01
2022-10-02T07:39:00.993Z,73.88
2022-10-02T07:41:16.168Z,73.69
2022-10-02T07:43:37.237Z,74.05
2022-10-02T07:45:48.288Z,73.98
2022-10-02T07:48:13.745Z,73.74
2022-10-02T07:50:25.288Z,73.74
2022-10-02T07:52:41.527Z,73.62
2022-10-02T07:54:59.498Z,74.03
2022-10-02T07:57:13.847Z,74.24
2022-10-02T07:59:20.768Z,74.57
2022-10-02T08:01:30.963Z,75.11
2022-10-02T08:03:40.113Z,75.28
2022-10-02T08:05:47.866Z,75.78
2022-10-02T08:08:02.281Z,75.89
2022-10-02T08:10:13.982Z,76.02
2022-10-02T08:12:26.684Z,76.24
2022-10-02T08:14:38.028Z,76.80
2022-10-02T08:16:48.399Z,76.94
2022-10-02T08:19:00.183Z,77.24
2022-10-02T08:21:10.770Z,77.62
2022-10-02T08:23:23.622Z,77.62
2022-10-02T08:25:31.908Z,77.69
2022-10-02T08:27:49.127Z,77.62
2022-10-02T08:29:58.235Z,77.97
2022-10-02T08:32:07.587Z,77.87
2022-10-02T08:34:19.183Z,78.08
2022-10-02T08:36:52.634Z,78.03
2022-10-02T08:39:08.475Z,78.21
2022-10-02T08:41:47.437Z,77.99
2022-10-02T08:44:27.118Z,77.80
2022-10-02T08:47:02.331Z,77.40
2022-10-02T08:49:36.830Z,77.59
2022-10-02T08:52:16.458Z,77.42
2022-10-02T08:54:59.645Z,77.00
2022-10-02T08:57:19.885Z,77.08
2022-10-02T08:59:54.853Z,77.04
2022-10-02T09:02:45.625Z,77.01
2022-10-02T09:05:41.984Z,76.81
2022-10-02T09:08:21.389Z,76.32
2022-10-02T09:10:53.036Z,76.08
2022-10-02T09:13:42.596Z,75.25
2022-10-02T09:15:54.149Z,75.20
2022-10-02T09:18:15.633Z,75.10
2022-10-02T09:20:43.550Z,75.19
2022-10-02T09:23:26.645Z,74.39
2022-10-02T09:25:38.036Z,73.96
2022-10-02T09:28:11.906Z,73.35
2022-10-02T09:30:50.912Z,73.14
2022-10-02T09:33:19.554Z,72.83
2022-10-02T09:35:57.389Z,72.85
2022-10-02T09:38:23.262Z,72.86
2022-10-02T09:41:18.898Z,72.48
2022-10-02T09:44:04.755Z,72.35
2022-10-02T09:46:38.337Z,72.35
2022-10-02T09:49:11.667Z,72.04
2022-10-02T09:51:53.426Z,72.35
2022-10-02T09:54:18.562Z,72.09
2022-10-02T09:56:57.807Z,72.28
2022-10-02T09:59:36.082Z,72.01
2022-10-02T10:02:13.207Z,71.28
2022-10-02T10:05:06.775Z,71.34
2022-10-02T10:07:41.217Z,70.40
2022-10-02T10:10:24.702Z,70.62
2022-10-02T10:13:03.581Z,70.47
2022-10-02T10:15:39.132Z,70.48
2022-10-02T10:18:18.099Z,70.00
2022-10-02T10:20:48.881Z,70.07
2022-10-02T10:23:26.188Z,69.67
2022-10-02T10:25:50.154Z,69.20
2022-10-02T10:28:29.607Z,69.10
2022-10-02T10:31:03.193Z,68.78
2022-10-02T10:34:07.655Z,69.07
2022-10-02T10:36:50.498Z,68.83
2022-10-02T10:39:15.311Z,68.51
2022-10-02T10:41:43.497Z,68.12
2022-10-02T10:44:08.070Z,67.98
2022-10-02T10:46:32.775Z,67.78
2022-10-02T10:48:50.701Z,68.24
2022-10-02T10:51:01.407Z,67.97
2022-10-02T10:53:41.907Z,67.92
2022-10-02T10:56:11.748Z,68.30
2022-10-02T10:58:29.618Z,68.45
2022-10-02T11:00:47.944Z,68.54
2022-10-02T11:03:06.916Z,68.66
2022-10-02T11:05:35.619Z,68.92
2022-10-02T11:07:56.132Z,69.00
2022-10-02T11:10:24.020Z,69.17
2022-10-02T11:12:55.627Z,69.24
2022-10-02T11:15:19.621Z,69.88
2022-10-02T11:17:45.002Z,70.29
2022-10-02T11:20:14.020Z,70.32
2022-10-02T11:22:51.847Z,70.80
2022-10-02T11:25:29.479Z,71.33
2022-10-02T11:28:10.851Z,71.80
2022-10-02T11:30:23.703Z,71.90
2022-10-02T11:33:10.080Z,71.69
2022-10-02T11:35:29.907Z,71.60
2022-10-02T11:38:00.618Z,71.17
2022-10-02T11:40:33.918Z,71.03
2022-10-02T11:42:59.700Z,71.21
2022-10-02T11:45:40.210Z,71.56
2022-10-02T11:48:09.918Z,71.45
2022-10-02T11:50:40.116Z,71.59
2022-10-02T11:53:12.821Z,71.48
2022-10-02T11:55:42.645Z,71.33
2022-10-02T11:58:02.356Z,71.36
2022-10-02T12:00:17.103Z,71.45
2022-10-02T12:02:28.945Z,71.49
2022-10-02T12:04:47.943Z,71.59
2022-10-02T12:07:20.609Z,71.42
2022-10-02T12:09:37.177Z,71.45
2022-10-02T12:11:51.679Z,71.58
2022-10-02T12:14:07.290Z,71.29
2022-10-02T12:16:24.034Z,71.08
2022-10-02T12:18:43.464Z,71.36
2022-10-02T12:21:00.651Z,71.33
2022-10-02T12:23:15.262Z,71.54
2022-10-02T12:25:28.129Z,71.62
2022-10-02T12:27:49.234Z,71.87
2022-10-02T12:30:05.617Z,72.19
2022-10-02T12:32:23.103Z,72.95
2022-10-02T12:34:43.524Z,73.34
2022-10-02T12:36:57.012Z,74.03
2022-10-02T12:39:10.245Z,74.47
2022-10-02T12:41:28.081Z,74.91
2022-10-02T12:44:02.843Z,75.08
2022-10-02T12:46:23.389Z,75.77
2022-10-02T12:48:52.925Z,75.87
2022-10-02T12:51:27.234Z,76.11
2022-10-02T12:53:57.392Z,76.44
2022-10-02T12:56:44.079Z,76.66
2022-10-02T12:58:58.911Z,76.83
2022-10-02T13:01:44.863Z,77.17
2022-10-02T13:04:25.412Z,77.14
2022-10-02T13:07:24.070Z,77.85
2022-10-02T13:09:40.723Z,77.90
2022-10-02T13:12:20.507Z,78.39
2022-10-02T13:15:01.202Z,78.73
2022-10-02T13:17:31.054Z,79.15
2022-10-02T13:19:45.691Z,80.12
2022-10-02T13:22:01.944Z,80.16
2022-10-02T13:24:21.837Z,80.92
2022-10-02T13:26:37.480Z,81.08
2022-10-02T13:29:08.338Z,81.63
2022-10-02T13:31:24.004Z,81.70
2022-10-02T13:33:58.409Z,81.86
2022-10-02T13:36:14.062Z,82.45
2022-10-02T13:38:40.089Z,82.69
2022-10-02T13:40:55.413Z,82.61
2022-10-02T13:43:36.960Z,82.70
2022-10-02T13:45:47.981Z,83.02
2022-10-02T13:48:02.256Z,83.58
2022-10-02T13:50:22.509Z,83.34
2022-10-02T13:52:38.229Z,83.71
2022-10-02T13:54:54.369Z,83.78
2022-10-02T13:57:08.142Z,83.92
2022-10-02T13:59:23.883Z,84.09
2022-10-02T14:01:38.380Z,84.11
2022-10-02T14:03:58.480Z,84.45
2022-10-02T14:06:11.287Z,84.73
2022-10-02T14:08:39.523Z,85.04
2022-10-02T14:10:57.568Z,84.52
2022-10-02T14:13:18.962Z,84.26
2022-10-02T14:15:36.444Z,84.60
2022-10-02T14:17:53.707Z,84.57
2022-10-02T14:20:27.212Z,84.93
2022-10-02T14:22:40.540Z,85.33
2022-10-02T14:25:05.091Z,85.32
2022-10-02T14:27:17.589Z,85.54
2022-10-02T14:29:35.200Z,85.69
2022-10-02T14:32:15.246Z,85.50
2022-10-02T14:34:55.585Z,86.52
2022-10-02T14:37:23.582Z,85.99
2022-10-02T14:39:35.004Z,86.67
2022-10-02T14:42:11.083Z,86.59
2022-10-02T14:44:47.108Z,86.28
2022-10-02T14:47:10.948Z,86.49
2022-10-02T14:49:46.161Z,86.81
2022-10-02T14:52:22.519Z,87.47
2022-10-02T14:54:54.197Z,87.43
2022-10-02T14:57:19.292Z,87.42
2022-10-02T14:59:58.284Z,87.28
2022-10-02T15:02:25.589Z,87.60
2022-10-02T15:04:45.235Z,88.15
2022-10-02T15:07:07.749Z,88.23
2022-10-02T15:09:18.717Z,88.27
2022-10-02T15:11:31.265Z,88.48
2022-10-02T15:13:43.270Z,88.25
2022-10-02T15:15:53.330Z,88.65
2022-10-02T15:18:25.415Z,88.61
2022-10-02T15:20:47.183Z,88.59
2022-10-02T15:23:00.964Z,89.01
2022-10-02T15:25:21.292Z,88.55
2022-10-02T15:27:32.066Z,88.68
2022-10-02T15:29:50.223Z,88.35
2022-10-02T15:32:16.106Z,88.82
2022-10-02T15:34:28.427Z,89.26
2022-10-02T15:36:55.573Z,89.11
2022-10-02T15:39:24.862Z,89.52
2022-10-02T15:41:45.707Z,89.43
2022-10-02T15:44:01.860Z,89.86
2022-10-02T15:46:25.070Z,89.56
2022-10-02T15:49:00.066Z,89.84
2022-10-02T15:51:18.936Z,90.04
2022-10-02T15:53:43.094Z,90.38
2022-10-02T15:55:55.525Z,91.15
2022-10-02T15:58:19.438Z,91.34
2022-10-02T16:00:25.312Z,91.56
2022-10-02T16:02:44.137Z,91.67
2022-10-02T16:04:58.529Z,91.79
2022-10-02T16:07:41.646Z,92.17
2022-10-02T16:09:57.211Z,92.87
2022-10-02T16:12:28.476Z,93.18
2022-10-02T16:14:51.014Z,93.37
2022-10-02T16:17:26.877Z,93.46
2022-10-02T16:19:46.185Z,93.91
2022-10-02T16:22:17.966Z,94.42
2022-10-02T16:24:39.832Z,94.89
2022-10-02T16:27:13.277Z,94.84
2022-10-02T16:29:31.305Z,95.13
2022-10-02T16:32:05.881Z,95.11
2022-10-02T16:34:24.177Z,95.42
2022-10-02T16:36:40.269Z,95.47
2022-10-02T16:38:49.941Z,95.52
2022-10-02T16:40:58.918Z,95.12
2022-10-02T16:43:39.292Z,95.19
2022-10-02T16:46:02.852Z,94.76
2022-10-02T16:48:15.058Z,94.65
2022-10-02T16:50:24.497Z,94.63
2022-10-02T16:52:37.210Z,94.88
2022-10-02T16:54:47.109Z,94.69
2022-10-02T16:56:57.011Z,94.67
2022-10-02T16:59:09.850Z,94.99
2022-10-02T17:01:28.917Z,95.01
2022-10-02T17:03:40.641Z,94.69
2022-10-02T17:05:52.024Z,94.33
2022-10-02T17:08:03.812Z,94.27
2022-10-02T17:10:22.397Z,93.89
2022-10-02T17:12:31.707Z,93.93
2022-10-02T17:14:45.449Z,93.61
2022-10-02T17:16:58.648Z,93.52
2022-10-02T17:19:16.921Z,93.82
2022-10-02T17:21:28.071Z,93.62
2022-10-02T17:23:42.112Z,93.55
2022-10-02T17:25:53.478Z,93.75
2022-10-02T17:28:02.970Z,93.72
2022-10-02T17:30:18.173Z,93.80
2022-10-02T17:32:48.001Z,93.95
2022-10-02T17:34:56.665Z,93.82
2022-10-02T17:37:26.955Z,93.77
2022-10-02T17:39:53.180Z,93.75
2022-10-02T17:42:09.177Z,93.68
2022-10-02T17:44:22.694Z,93.68
2022-10-02T17:47:05.822Z,93.60
2022-10-02T17:49:22.200Z,94.11
2022-10-02T17:51:52.745Z,93.79
2022-10-02T17:54:15.035Z,93.65
2022-10-02T17:57:00.722Z,93.55
2022-10-02T17:59:24.184Z,93.54
2022-10-02T18:01:38.149Z,93.93
2022-10-02T18:04:07.907Z,94.25
2022-10-02T18:06:25.281Z,94.23
2022-10-02T18:08:48.294Z,94.07
2022-10-02T18:11:06.662Z,94.02
2022-10-02T18:13:50.618Z,94.04
2022-10-02T18:16:18.788Z,94.10
2022-10-02T18:18:33.408Z,93.91
2022-10-02T18:20:53.103Z,94.01
2022-10-02T18:23:15.528Z,93.70
2022-10-02T18:25:35.696Z,93.71
2022-10-02T18:28:01.469Z,93.40
2022-10-02T18:30:17.740Z,93.30
2022-10-02T18:32:47.806Z,93.15
2022-10-02T18:35:25.154Z,93.23
2022-10-02T18:37:49.315Z,92.78
2022-10-02T18:40:16.085Z,93.08
2022-10-02T18:42:39.473Z,92.72
2022-10-02T18:44:54.633Z,92.77
2022-10-02T18:47:09.373Z,92.56
2022-10-02T18:49:40.440Z,92.21
2022-10-02T18:52:09.101Z,92.51
2022-10-02T18:54:28.279Z,92.38
2022-10-02T18:56:52.616Z,92.11
2022-10-02T18:59:12.866Z,92.39
2022-10-02T19:01:44.430Z,92.03
2022-10-02T19:04:05.517Z,92.17
2022-10-02T19:06:17.679Z,91.95
2022-10-02T19:08:28.525Z,91.93
2022-10-02T19:10:42.625Z,91.85
2022-10-02T19:12:51.433Z,91.65
2022-10-02T19:15:18.864Z,91.90
2022-10-02T19:17:26.912Z,91.71
2022-10-02T19:19:32.252Z,91.41
2022-10-02T19:21:38.252Z,91.23
2022-10-02T19:23:51.212Z,91.49
2022-10-02T19:25:59.210Z,91.62
2022-10-02T19:28:05.548Z,91.24
2022-10-02T19:30:24.954Z,91.47
2022-10-02T19:32:33.238Z,91.22
2022-10-02T19:34:38.574Z,91.27
2022-10-02T19:36:48.531Z,91.02
2022-10-02T19:39:00.162Z,91.39
2022-10-02T19:41:10.051Z,91.22
2022-10-02T19:43:21.124Z,91.09
2022-10-02T19:45:29.482Z,90.82
2022-10-02T19:47:41.190Z,91.36
2022-10-02T19:49:52.320Z,91.09
2022-10-02T19:51:57.843Z,91.06
2022-10-02T19:54:04.805Z,91.22
2022-10-02T19:56:15.467Z,91.21
2022-10-02T19:58:25.282Z,91.54
2022-10-02T20:00:32.192Z,91.74
2022-10-02T20:02:41.565Z,91.50
2022-10-02T20:04:46.855Z,91.65
2022-10-02T20:06:55.480Z,91.78
2022-10-02T20:09:06.937Z,91.76
2022-10-02T20:11:18.581Z,91.34
2022-10-02T20:13:33.622Z,91.57
2022-10-02T20:15:46.252Z,91.86
2022-10-02T20:17:51.072Z,91.45
2022-10-02T20:19:59.380Z,91.69
2022-10-02T20:22:13.896Z,91.82
2022-10-02T20:24:24.802Z,91.80
2022-10-02T20:26:31.902Z,91.73
2022-10-02T20:28:45.294Z,91.98
2022-10-02T20:30:55.303Z,91.94
2022-10-02T20:33:04.847Z,91.83
2022-10-02T20:35:15.941Z,91.87
2022-10-02T20:37:26.368Z,91.91
2022-10-02T20:39:36.857Z,91.80
2022-10-02T20:41:50.256Z,91.93
2022-10-02T20:43:58.025Z,91.88
2022-10-02T20:46:26.290Z,92.02
2022-10-02T20:49:08.055Z,92.16
2022-10-02T20:51:24.451Z,92.18
2022-10-02T20:53:56.178Z,92.37
2022-10-02T20:56:10.578Z,92.56
2022-10-02T20:58:47.932Z,92.75
2022-10-02T21:01:15.847Z,92.69
2022-10-02T21:03:54.610Z,92.93
2022-10-02T21:06:40.511Z,92.99
2022-10-02T21:09:20.864Z,93.34
2022-10-02T21:11:39.555Z,93.10
2022-10-02T21:14:06.426Z,93.00
2022-10-02T21:16:28.967Z,93.63
2022-10-02T21:19:03.604Z,93.67
2022-10-02T21:21:40.734Z,93.87
2022-10-02T21:24:11.414Z,93.70
2022-10-02T21:27:01.340Z,94.37
2022-10-02T21:29:42.218Z,94.69
2022-10-02T21:32:27.852Z,94.91
2022-10-02T21:34:45.821Z,94.55
2022-10-02T21:36:57.392Z,94.98
2022-10-02T21:39:37.018Z,95.03
2022-10-02T21:42:22.417Z,95.17
2022-10-02T21:45:03.628Z,95.41
2022-10-02T21:47:40.387Z,94.96
2022-10-02T21:50:27.634Z,95.03
2022-10-02T21:53:07.620Z,94.91
2022-10-02T21:55:53.573Z,95.11
2022-10-02T21:58:36.804Z,94.85
2022-10-02T22:01:07.331Z,94.87
2022-10-02T22:03:46.360Z,95.15
2022-10-02T22:06:16.386Z,95.94
2022-10-02T22:08:29.335Z,95.63
2022-10-02T22:10:43.102Z,95.76
2022-10-02T22:13:04.997Z,96.35
2022-10-02T22:15:18.073Z,96.17
2022-10-02T22:17:32.563Z,96.23
2022-10-02T22:20:09.612Z,96.30
2022-10-02T22:22:28.642Z,96.53
2022-10-02T22:24:48.301Z,96.67
2022-10-02T22:27:16.339Z,96.81
2022-10-02T22:29:29.098Z,97.24
2022-10-02T22:31:51.045Z,96.99
2022-10-02T22:34:07.232Z,96.93
2022-10-02T22:36:31.753Z,96.97
2022-10-02T22:38:38.135Z,97.29
2022-10-02T22:40:48.990Z,97.60
2022-10-02T22:42:58.744Z,97.33
2022-10-02T22:45:16.928Z,97.78
2022-10-02T22:47:30.025Z,97.79
2022-10-02T22:49:41.163Z,97.28
2022-10-02T22:51:56.835Z,97.49
2022-10-02T22:54:20.572Z,97.52
2022-10-02T22:56:31.292Z,97.46
2022-10-02T22:58:41.982Z,97.61
2022-10-02T23:00:59.778Z,98.05
2022-10-02T23:03:10.999Z,97.86
2022-10-02T23:05:21.927Z,97.97
2022-10-02T23:07:35.405Z,97.90
2022-10-02T23:09:47.209Z,98.11
2022-10-02T23:11:59.988Z,98.15
2022-10-02T23:14:14.622Z,98.08
2022-10-02T23:16:27.279Z,97.89
2022-10-02T23:18:40.367Z,97.98
2022-10-02T23:20:50.183Z,97.92
2022-10-02T23:23:01.477Z,97.98
2022-10-02T23:25:19.246Z,97.90
2022-10-02T23:27:40.667Z,98.14
2022-10-02T23:29:54.033Z,97.84
2022-10-02T23:32:06.122Z,97.84
2022-10-02T23:34:19.190Z,97.78
2022-10-02T23:36:29.306Z,97.74
2022-10-02T23:38:43.539Z,97.98
2022-10-02T23:41:09.025Z,97.82
2022-10-02T23:43:19.834Z,98.05
2022-10-02T23:45:35.385Z,98.20
2022-10-02T23:47:56.956Z,98.12
2022-10-02T23:50:02.613Z,97.81
2022-10-02T23:52:26.330Z,97.96
2022-10-02T23:54:47.342Z,97.87
2022-10-02T23:57:19.590Z,97.92
2022-10-02T23:59:46.707Z,97.87
